Address 0x74488ea0764c40c8aeebb39241633d86d87c42d2 1

 
 
Txn Hash Method
Block
From
To
Value [Txn Fee]
0x7d1dae3400ef4570670b1e1c54d2dff99bf4e35833f8397ec3eb485214308854Swap Exact ETH F...71973962021-05-06 22:28:20140 days 23 hrs ago0x74488ea0764c40c8aeebb39241633d86d87c42d2OUT PancakeSwap: Router v20.005 BNB0.003427305
0xe4906af24ee6fb161f8db2986c186afe6ecbc18ff65d889ac1f892e96f639b49Swap Exact ETH F...68575992021-04-24 23:54:39152 days 21 hrs ago0x74488ea0764c40c8aeebb39241633d86d87c42d2OUT PancakeSwap: Router v20.070105655 BNB0.0008307
0x3d99caf3dc37d0dea50bb611b4d081e28f9185590505a4479fd6c8a2d1274a39Swap Exact ETH F...68575862021-04-24 23:54:00152 days 21 hrs ago0x74488ea0764c40c8aeebb39241633d86d87c42d2OUT PancakeSwap: Router v20.0702621 BNB0.000156445
0x3a3d03ed843396167f2d13d89bdb15b2bb59a1a8f1c004e5b24a2c9cb595b518Swap Exact ETH F...68575772021-04-24 23:53:33152 days 21 hrs ago0x74488ea0764c40c8aeebb39241633d86d87c42d2OUT PancakeSwap: Router v20.1 BNB0.00089112
0x9a833de6b48426a56ff14aa1320c89b8a84542bf4c538ee07bae69e0dba4ae55Swap Exact ETH F...68331722021-04-24 3:29:04153 days 18 hrs ago0x74488ea0764c40c8aeebb39241633d86d87c42d2OUT PancakeSwap: Router v20.048694425 BNB0.00207128
0xf0ec11c0c0e56225037ea40f7a5e55c729ba19d4868ac4d0864d40aa31439302Swap Exact ETH F...68307752021-04-24 1:28:56153 days 20 hrs ago0x74488ea0764c40c8aeebb39241633d86d87c42d2OUT PancakeSwap: Router v20.00004 BNB0.000882335
0x8518d3d5c9b07fda0befc7b40ed3a1a815ffc29943757f7637a4b969b9277712Swap Exact ETH F...68307712021-04-24 1:28:44153 days 20 hrs ago0x74488ea0764c40c8aeebb39241633d86d87c42d2OUT PancakeSwap: Router v20.00004 BNB0.000821975
0x781a5a740b5c74901bddc7c27d26341a14282f50ac4f1114ebb4f8f49dd23dcbSwap Exact ETH F...68307392021-04-24 1:27:08153 days 20 hrs ago0x74488ea0764c40c8aeebb39241633d86d87c42d2OUT PancakeSwap: Router v20.00004 BNB0.000882395
0xdadad6ba9c5826d57e35159a7ffb7fd3dbf959f99f26c9a821ed35d5c7ae3e16Swap Exact ETH F...68307092021-04-24 1:25:38153 days 20 hrs ago0x74488ea0764c40c8aeebb39241633d86d87c42d2OUT PancakeSwap: Router v20.00005 BNB0.000882455
0xbefb748b9e9cb05627abc0cc030d9e15d301880df4e8a81132c2ce9c013e3876Swap Exact ETH F...68303752021-04-24 1:08:56153 days 20 hrs ago0x74488ea0764c40c8aeebb39241633d86d87c42d2OUT PancakeSwap: Router0.05 BNB0.00063894
0x3850cebf80f9e226492f851fc0e6960bc99f3ddf2204cabdc89e6921edceecabSwap Exact ETH F...68302762021-04-24 1:03:59153 days 20 hrs ago0x74488ea0764c40c8aeebb39241633d86d87c42d2OUT 0x2ad2c5314028897aecfcf37fd923c079beeb2c560.0015 BNB0.000882705
0xdd340079c6ddc7653cd7703d508da9b938e2f3ee679e3f172b6cefb6f9b5c6b4Swap Exact ETH F...68262402021-04-23 21:42:02153 days 23 hrs ago0x74488ea0764c40c8aeebb39241633d86d87c42d2OUT 0x2ad2c5314028897aecfcf37fd923c079beeb2c560.0004 BNB0.000156385
0x66115e60b9ca4c3d67641d4c182b68e19efb67f0ddd880178782381f2f31e7ffSwap Exact ETH F...68260692021-04-23 21:33:27153 days 23 hrs ago0x74488ea0764c40c8aeebb39241633d86d87c42d2OUT 0x2ad2c5314028897aecfcf37fd923c079beeb2c560.0002 BNB0.00096636
0xcff5475395a9669b224b95ef96b6fe32ccc9d20d6ae9028ffafef4608bbd60dfSwap Exact ETH F...68258562021-04-23 21:22:48154 days 7 mins ago0x74488ea0764c40c8aeebb39241633d86d87c42d2OUT 0x2ad2c5314028897aecfcf37fd923c079beeb2c560.0002 BNB0.000156325
0x518233a0c1f9cee5417bc3f36b61c3aa151a56c4629a6cd641a041e6bcad2070Swap Exact ETH F...68245102021-04-23 20:14:19154 days 1 hr ago0x74488ea0764c40c8aeebb39241633d86d87c42d2OUT 0x2ad2c5314028897aecfcf37fd923c079beeb2c560.0002 BNB0.00083083
0xbb1b48aaf6bd7fd15e99cbb27748bb8eaf23ed75af310ff9b893713e3a914db0Swap Exact ETH F...68244952021-04-23 20:13:34154 days 1 hr ago0x74488ea0764c40c8aeebb39241633d86d87c42d2OUT 0x2ad2c5314028897aecfcf37fd923c079beeb2c560.0002 BNB0.00083089
0xc959fa7accca2d626331578ac7d4bf78c0287afcb34ab0fed06bd87ff2e5d822Swap Exact ETH F...68244952021-04-23 20:13:34154 days 1 hr ago0x74488ea0764c40c8aeebb39241633d86d87c42d2OUT 0x2ad2c5314028897aecfcf37fd923c079beeb2c560.0002 BNB0.00089131
0xadfd1dfb3f62c07bbb4cd8b847d04e7e105ac0e8de3a3954e19cf4f8d86d88d4Swap Exact ETH F...68231592021-04-23 19:06:46154 days 2 hrs ago0x74488ea0764c40c8aeebb39241633d86d87c42d2OUT 0x2ad2c5314028897aecfcf37fd923c079beeb2c560.0001 BNB0.00089125
0x1cf4f2dc4d5fbbf0bb1bfedce896ea1f69396a4f12d3bbec1a51046145611b6dSwap Exact ETH F...68231552021-04-23 19:06:34154 days 2 hrs ago0x74488ea0764c40c8aeebb39241633d86d87c42d2OUT 0x2ad2c5314028897aecfcf37fd923c079beeb2c560.0001 BNB0.00089125
0xed54685fb574975a15c3ecbbfacc4a34c9ce12dc9ee6d24a0c747e1172d0a4edSwap Exact ETH F...68231502021-04-23 19:06:19154 days 2 hrs ago0x74488ea0764c40c8aeebb39241633d86d87c42d2OUT 0x2ad2c5314028897aecfcf37fd923c079beeb2c560.0001 BNB0.00089125
0x3e66e57c75ca79fd7a8ea06beead37cde22f87118df997e777e2cbecedf3aa0eSwap Exact ETH F...68231492021-04-23 19:06:16154 days 2 hrs ago0x74488ea0764c40c8aeebb39241633d86d87c42d2OUT 0x2ad2c5314028897aecfcf37fd923c079beeb2c560.0001 BNB0.00089125
0xd62f77f5f2a9f6b25ace618a1633e48af80a12222abb121c45e96875bba44cf6Swap Exact ETH F...68231462021-04-23 19:06:07154 days 2 hrs ago0x74488ea0764c40c8aeebb39241633d86d87c42d2OUT 0x2ad2c5314028897aecfcf37fd923c079beeb2c560.0001 BNB0.00089125
0x3c48e3d7327d33cb2a7f25f6e1662af9d1edd71317ac3e19dd0f6824148bfd21Swap Exact ETH F...68231442021-04-23 19:06:01154 days 2 hrs ago0x74488ea0764c40c8aeebb39241633d86d87c42d2OUT 0x2ad2c5314028897aecfcf37fd923c079beeb2c560.0001 BNB0.00089125
0x7f0718a8e47f54255c84efd4bb53df01ad90652234ef7e2ac7bb0ae93aec9da9Swap Exact ETH F...68231342021-04-23 19:05:31154 days 2 hrs ago0x74488ea0764c40c8aeebb39241633d86d87c42d2OUT 0x2ad2c5314028897aecfcf37fd923c079beeb2c560.0002 BNB0.00089131
0x9e63e8ee137fe7085f9924b7e891f2ef1bada5ab414ccbb1abe47db2ddcd9df8Swap Exact ETH F...68222622021-04-23 18:21:54154 days 3 hrs ago0x74488ea0764c40c8aeebb39241633d86d87c42d2OUT 0x2ad2c5314028897aecfcf37fd923c079beeb2c560.0001 BNB0.00089131
[ Download CSV Export 
Latest 7 internal transactions
Parent Txn Hash Block From To Value
0x10bef3b72ef1b8245887fae5c7bef0cd046518da89188b581a72ef121a0e829b68575592021-04-24 23:52:39152 days 21 hrs ago BSC: Token Hub0x74488ea0764c40c8aeebb39241633d86d87c42d20.1732245 BNB
0x2743b60c646feb561edc32fa8b850aa2f94735a3ed52a958459bb7943ef5843368201832021-04-23 16:37:56154 days 4 hrs ago Binance: WBNB Token0x74488ea0764c40c8aeebb39241633d86d87c42d20.16364463 BNB
0xde75a4c0453f2a691bd32e8f048ae40ddea03268868238fb2fd1a1f20e63aac368201042021-04-23 16:33:59154 days 4 hrs ago BSC: Token Hub0x74488ea0764c40c8aeebb39241633d86d87c42d20.172806 BNB
0x35b60e33b220810fd9c5d61e00b6be88cff046d9b81c2c28db5505a27d9a05c968196862021-04-23 16:13:05154 days 5 hrs ago BSC: Token Hub0x74488ea0764c40c8aeebb39241633d86d87c42d20.1719544 BNB
0x92b0325f49ea38d2c0abcde9fee14b30fee5516040e5a77130f1a2cd734ea86b67658172021-04-21 18:34:48156 days 2 hrs ago BSC: Token Hub0x74488ea0764c40c8aeebb39241633d86d87c42d20.345925 BNB
0x92030b6071bed4e884daff1bcf04f2879b3bc1184bbf286ab859a0cde924266067356042021-04-20 16:35:32157 days 4 hrs ago BSC: Token Hub0x74488ea0764c40c8aeebb39241633d86d87c42d20.33780386 BNB
0x2bf30c3f422ea9bcac99093ce71eb043041d849c1577e4d2a868368d41b90f2967070502021-04-19 16:41:06158 days 4 hrs ago BSC: Token Hub0x74488ea0764c40c8aeebb39241633d86d87c42d20.21059396 BNB
[ Download CSV Export 
Loading

Contract Name:
0 BNB

Compiler Version
0

Optimization Enabled:
0 BNB

Other Settings:
-NA-
Block Transaction Gas Used Reward
Age Block Fee Address BC Fee Address Voting Power Jailed Incoming
Block Uncle Number Difficulty Gas Used Reward
Loading
Loading
Make sure to use the "Vote Down" button for any spammy posts, and the "Vote Up" for interesting conversations.